Adamsville, Rhode Island
Current Conditions -  °F | °C
As of 4:53 AM on Saturday 01 Nov 2014 (Local Time) from KUUU Reporting Station
Scattered Clouds Scattered Clouds  
Wind Chill: 50°   Ceiling: Unl
Heat Index: 50°   Visibility: 10mi
Dew Point: 38°   Wind: 22mph
Humidity: 63%   Direction: 20°NNE
Pressure: 29.83"   Gusts: 25mph
Location:  41.55°N, 71.13°W
Report Text: KUUU 010853Z AUTO 02019G22KT 10SM SCT065 10/03 A2983 RMK AO2 SLP101 T01000033 58010
Loading
Personal Weather Stations






























Interactive Weather Map
Tropical Storm Tracking
New forecast layout! Learn more

10-Day Weather Forecast

Advertisements
Track Severe Weather on mobile